Private Wetterstation Nrnberg - Katzwang
Wetterdaten: Juni 2013
Datum Temp. A. Feuchte A. Luftdruck Regen Wind Richtung Taupunkt Windchill Windben
01.06.2013 12,2 C 85 % 1008 hPa 8,3 l/m 6,7 km/h W-NW 9,7 C 11,0 C 13,8 km/h
02.06.2013 9,6 C 84 % 1017 hPa 19,7 l/m 2,6 km/h W-NW 7,0 C 8,9 C 3,6 km/h
03.06.2013 8,9 C 84 % 1020 hPa 7,8 l/m 2,8 km/h W-NW 6,4 C 8,5 C 3,8 km/h
04.06.2013 14,4 C 72 % 1016 hPa 0,0 l/m 0,9 km/h NO 9,4 C 14,4 C 1,9 km/h
05.06.2013 17,0 C 62 % 1016 hPa 0,0 l/m 3,3 km/h NO 9,4 C 16,5 C 4,3 km/h
06.06.2013 18,0 C 66 % 1017 hPa 0,0 l/m 1,9 km/h N-NO 11,2 C 18,0 C 2,9 km/h
07.06.2013 18,3 C 70 % 1017 hPa 0,0 l/m 0,3 km/h O 12,5 C 18,3 C 1,4 km/h
08.06.2013 19,9 C 69 % 1011 hPa 0,0 l/m 3,9 km/h NO 13,9 C 19,5 C 5,8 km/h
09.06.2013 19,3 C 74 % 1006 hPa 0,5 l/m 2,9 km/h N-NO 14,3 C 19,3 C 3,9 km/h
10.06.2013 15,3 C 82 % 1008 hPa 14,5 l/m 1,7 km/h N-NO 12,2 C 15,3 C 2,7 km/h
11.06.2013 15,5 C 81 % 1015 hPa 3,1 l/m 2,4 km/h NO 12,1 C 15,5 C 3,4 km/h
12.06.2013 18,0 C 70 % 1018 hPa 0,0 l/m 1,4 km/h NO 12,2 C 18,0 C 2,4 km/h
13.06.2013 22,7 C 61 % 1013 hPa 0,0 l/m 6,7 km/h NO 14,5 C 22,4 C 7,7 km/h
14.06.2013 16,7 C 67 % 1017 hPa 7,3 l/m 2,6 km/h W-NW 10,4 C 16,4 C 3,6 km/h
15.06.2013 20,5 C 62 % 1013 hPa 0,0 l/m 2,6 km/h W-NW 12,6 C 20,3 C 3,6 km/h
16.06.2013 21,8 C 63 % 1014 hPa 0,0 l/m 3,1 km/h W-NW 14,0 C 21,8 C 4,1 km/h
17.06.2013 26,4 C 61 % 1011 hPa 0,0 l/m 3,6 km/h NO 17,8 C 26,4 C 4,6 km/h
18.06.2013 28,0 C 57 % 1013 hPa 0,0 l/m 1,0 km/h NO 18,1 C 28,0 C 2,0 km/h
19.06.2013 28,3 C 58 % 1010 hPa 0,0 l/m 6,2 km/h O-NO 18,6 C 28,3 C 10,2 km/h
20.06.2013 25,5 C 67 % 1008 hPa 1,0 l/m 14,9 km/h W-NW 18,2 C 23,5 C 22,7 km/h
21.06.2013 21,3 C 62 % 1014 hPa 4,7 l/m 5,0 km/h W-NW 13,4 C 21,0 C 6,0 km/h
22.06.2013 19,6 C 68 % 1014 hPa 0,0 l/m 4,1 km/h N-NO 13,5 C 19,6 C 5,1 km/h
23.06.2013 18,4 C 63 % 1014 hPa 0,0 l/m 2,8 km/h W-NW 11,0 C 18,4 C 3,8 km/h
24.06.2013 16,1 C 68 % 1017 hPa 0,0 l/m 1,0 km/h W-NW 10,2 C 16,1 C 2,0 km/h
25.06.2013 12,9 C 80 % 1021 hPa 6,2 l/m 0,0 km/h W-NW 9,6 C 12,9 C 1,0 km/h
26.06.2013 12,2 C 69 % 1024 hPa 0,0 l/m 1,7 km/h W-NW 6,5 C 12,1 C 2,7 km/h
27.06.2013 13,0 C 72 % 1020 hPa 0,0 l/m 0,9 km/h NO 7,9 C 13,0 C 1,9 km/h
28.06.2013 15,3 C 67 % 1018 hPa 0,0 l/m 2,8 km/h W-NW 8,7 C 15,3 C 3,8 km/h
29.06.2013 13,7 C 82 % 1016 hPa 9,3 l/m 4,3 km/h N 10,6 C 12,5 C 5,3 km/h
30.06.2013 14,8 C 68 % 1020 hPa 0,0 l/m 2,4 km/h W-NW 8,8 C 14,4 C 3,4 km/h
Min-Datum 03.06.13 18.06.13 01.06.13 11 Tage 01.06.13 - 03.06.13 02.06.13 01.06.13
Min-Zeit 06:30 15:50 00:00 - 00:00 - 06:30 11:30 00:00
Minimum 6,6 C 32 % 1003 hPa - 0,0 km/h - 4,3 C -1,2 C 1,0 km/h
Max-Datum 20.06.13 01.06.13 26.06.13 02.06.13 19.06.13 - 20.06.13 20.06.13 19.06.13
Max-Zeit 13:50 07:20 11:20 19:30 12:40 - 15:10 13:50 12:40
Maximum 37,1 C 86 % 1025 hPa 19,7 l/m 36,3 km/h
O-NO
- 23,7 C 37,1 C 59,1 km/h
O-NO
Durchschnitt 17,8 C 70 % 1015 hPa #82,4 l/m 3,2 km/h W-NW 11,8 C 17,5 C 4,8 km/h

Durchschnitt Minimum Temp.12,2 C
Durchschnitt Maximum Temp.22,8 C